Impacts METAR Board INFO
IDs:

KBOS - Boston/Logan Intl, MA, US

Updated at: 1514 UTC 21 Feb 2018
Potential Impact None Slight Moderate High
Time21/03Z 21/04Z 21/05Z 21/06Z 21/07Z 21/08Z 21/09Z 21/10Z 21/11Z 21/12Z 21/13Z 21/14Z 21/15Z
VIS 10 10 10
CIG 11 11 200
CoverOVCOVCBKN
FltCatMVFRMVFRVFR
WX------
WDir240240220
WSpd 19 17 8
WGst 27 23 --
Raw hourly METARs










KBOS 211254Z 24019G27KT 10SM OVC011 14/13 A3020 RMK AO2 PK WND 25027/1253 SLP227 T01440133
KBOS 211354Z 24017G23KT 10SM OVC011 16/14 A3020 RMK AO2 PK WND 23028/1258 SLP227 BINOVC T01610139
KBOS 201454Z 22008KT 10SM FEW015 FEW100 BKN200 13/11 A3024 RMK AO2 SLP240 T01330106 58002